KETCHIKAN AK US NWS current weather conditions

sailwx.info

Wind from 350 at 2 knots gusting 6

Air temperature 12.2° C
Dewpoint 8.8° C

Last reported at 2020-Aug-12 06:42 UTC.
Time now 2020-Aug-12 07:11 UTC

Location: N 55°21' W 131°41'.
View on Google Maps.

See reports from other nearby stations

  
Tides and Currents Weather Stations Pressure Air Temp Water Temp Dewpoint Dewpoint Depression Visibility Wind Speed Wind Dir Waves Ship Positions
date/time (UTC)wind fromknots sea level pressurealtimeterstation pressurevisibilityair tempwater tempwave heightnotes
2020-Aug-12 06:42 350 2 gusting 6 12.2
2020-Aug-12 06:32 350 2 gusting 6 12.5
2020-Aug-12 06:22 340 4 gusting 5 12.8
2020-Aug-12 06:12 340 4 gusting 6 12.8
2020-Aug-12 06:02 330 5 gusting 6 12.9
2020-Aug-12 05:52 330 5 gusting 7 13.0
2020-Aug-12 05:42 320 5 gusting 7 13.2
2020-Aug-12 05:32 330 4 gusting 6 13.2
2020-Aug-12 05:22 320 4 gusting 7 13.3
2020-Aug-12 05:12 350 2 gusting 6 13.3
2020-Aug-12 05:02 360 2 gusting 6 13.1
2020-Aug-12 04:52 330 4 gusting 8 13.0
2020-Aug-12 04:42 330 4 gusting 7 13.0
2020-Aug-12 04:32 330 5 gusting 7 12.8
2020-Aug-12 04:22 310 6 gusting 12 12.7
2020-Aug-12 04:12 300 7 gusting 12 12.9
2020-Aug-12 04:02 300 6 gusting 12 13.2
2020-Aug-12 03:52 300 8 gusting 14 13.8
2020-Aug-12 03:42 320 7 gusting 13 14.6
2020-Aug-12 03:32 340 4 gusting 9 15.1
2020-Aug-12 03:22 330 6 gusting 9 15.3
2020-Aug-12 03:12 340 5 gusting 11 15.4
2020-Aug-12 03:02 340 6 gusting 8 15.5
2020-Aug-12 02:52 340 5 gusting 9 15.7
2020-Aug-12 02:42 320 6 gusting 12 15.8
2020-Aug-12 02:33 340 5 gusting 11 16.3
2020-Aug-12 02:22 350 4 gusting 11 16.3
2020-Aug-12 02:12 330 6 gusting 12 16.1
2020-Aug-12 02:02 320 6 gusting 13 16.3
2020-Aug-12 01:52 310 8 gusting 13 16.9
2020-Aug-12 01:42 310 6 gusting 13 16.9
2020-Aug-12 01:32 320 6 gusting 13 16.5
2020-Aug-12 01:22 300 6 gusting 11 16.2
2020-Aug-12 01:12 300 6 gusting 12 16.3
2020-Aug-12 01:02 300 7 gusting 14 16.6
2020-Aug-12 00:52 320 6 gusting 12 16.5
2020-Aug-12 00:42 310 8 gusting 13 16.2
2020-Aug-12 00:32 310 6 gusting 13 16.3
2020-Aug-12 00:22 320 6 gusting 12 16.5
2020-Aug-12 00:13 300 6 gusting 13 16.7
2020-Aug-11 23:52 300 9 gusting 14 17.0
2020-Aug-11 23:42 310 7 gusting 18 18.0
2020-Aug-11 23:33 310 8 gusting 19 18.4
2020-Aug-11 23:22 310 7 gusting 14 18.5
2020-Aug-11 23:12 300 9 gusting 15 17.3
2020-Aug-11 23:02 310 8 gusting 18 17.7
2020-Aug-11 22:52 320 7 gusting 18 17.1
2020-Aug-11 22:43 300 9 gusting 18 16.9
2020-Aug-11 22:32 300 8 gusting 15 17.3
2020-Aug-11 22:22 290 7 gusting 13 17.7
2020-Aug-11 22:12 280 8 gusting 13 17.8
2020-Aug-11 22:02 280 8 gusting 13 18.0
2020-Aug-11 21:52 290 7 gusting 13 18.6
2020-Aug-11 21:43 310 6 gusting 13 17.5
2020-Aug-11 21:32 310 6 gusting 13 17.2
2020-Aug-11 21:22 300 8 gusting 17 16.8
2020-Aug-11 21:12 310 8 gusting 17 17.5
2020-Aug-11 21:04 290 8 gusting 15 17.4
2020-Aug-11 20:52 280 9 gusting 17 17.5
2020-Aug-11 20:42 290 8 gusting 14 17.6
2020-Aug-11 20:32 290 7 gusting 13 17.1
2020-Aug-11 20:22 300 11 gusting 17 16.5
2020-Aug-11 20:12 290 8 gusting 17 16.9
2020-Aug-11 20:02 300 6 gusting 12 16.6
2020-Aug-11 19:53 310 7 gusting 18 15.6
2020-Aug-11 19:42 300 8 gusting 15 14.7
2020-Aug-11 19:33 300 9 gusting 15 14.9
2020-Aug-11 19:22 290 9 gusting 17 15.1
2020-Aug-11 19:12 300 8 gusting 13 15.3
2020-Aug-11 19:02 290 8 gusting 13 15.6
2020-Aug-11 18:52 280 9 gusting 13 15.2
2020-Aug-11 18:42 290 8 gusting 14 15.0
2020-Aug-11 18:32 300 8 gusting 18 14.5
2020-Aug-11 18:22 310 7 gusting 15 13.4
2020-Aug-11 18:13 300 8 gusting 14 13.1
2020-Aug-11 18:02 300 8 gusting 17 13.0
2020-Aug-11 17:52 300 8 gusting 14 12.6
2020-Aug-11 17:42 310 8 gusting 15 12.2
2020-Aug-11 17:32 300 8 gusting 13 12.8
2020-Aug-11 17:22 310 7 gusting 14 13.5
2020-Aug-11 17:12 290 8 gusting 13 13.7
2020-Aug-11 17:02 300 7 gusting 14 13.3
2020-Aug-11 16:52 300 6 gusting 13 13.1
2020-Aug-11 16:43 300 7 gusting 13 12.8
2020-Aug-11 16:32 300 8 gusting 13 12.9
2020-Aug-11 16:22 310 6 gusting 11 13.3
2020-Aug-11 16:12 320 5 gusting 8 13.3
2020-Aug-11 16:02 330 4 gusting 6 13.1
2020-Aug-11 15:52 330 4 gusting 7 12.8
2020-Aug-11 15:42 330 5 gusting 6 12.6
2020-Aug-11 15:32 330 4 gusting 6 12.4
2020-Aug-11 15:22 330 5 gusting 7 12.3
2020-Aug-11 15:12 330 4 gusting 6 12.2
2020-Aug-11 15:02 320 5 gusting 7 12.2
2020-Aug-11 14:53 340 2 gusting 6 11.9
2020-Aug-11 14:42 340 4 gusting 6 11.7
2020-Aug-11 14:32 350 2 gusting 6 11.5
2020-Aug-11 14:22 340 4 gusting 6 11.5
2020-Aug-11 14:13 350 2 gusting 4 11.2
2020-Aug-11 14:02 350 2 gusting 5 10.9
2020-Aug-11 13:52 340 2 gusting 5 10.6
2020-Aug-11 13:42 320 6 gusting 8 10.4
2020-Aug-11 13:32 310 6 gusting 8 10.5
2020-Aug-11 13:22 310 6 gusting 7 10.7
2020-Aug-11 13:12 330 5 gusting 7 10.9
2020-Aug-11 13:02 320 5 gusting 6 10.9
2020-Aug-11 12:52 320 5 gusting 9 10.9
2020-Aug-11 12:42 310 6 gusting 9 10.9
2020-Aug-11 12:32 320 6 gusting 8 10.9
2020-Aug-11 12:22 320 6 gusting 8 10.8
2020-Aug-11 12:12 320 5 gusting 7 10.7
2020-Aug-11 12:02 310 6 gusting 9 10.7
2020-Aug-11 11:52 310 6 gusting 8 10.7
2020-Aug-11 11:42 310 6 gusting 8 10.9
2020-Aug-11 11:32 330 5 gusting 8 10.8
2020-Aug-11 11:22 330 6 gusting 8 10.8
2020-Aug-11 11:12 330 6 gusting 8 10.8
2020-Aug-11 11:02 330 5 gusting 8 10.8
2020-Aug-11 10:52 330 6 gusting 8 10.9
2020-Aug-11 10:42 330 6 gusting 9 10.9
2020-Aug-11 10:32 340 4 gusting 6 11.0
2020-Aug-11 10:22 340 4 gusting 6 11.0
2020-Aug-11 10:12 340 4 gusting 7 11.0
2020-Aug-11 10:02 330 4 gusting 6 11.0
2020-Aug-11 09:52 340 2 gusting 6 10.9
2020-Aug-11 09:42 320 5 gusting 6 10.9
2020-Aug-11 09:32 320 4 gusting 6 10.9
2020-Aug-11 09:22 340 4 gusting 6 10.9
2020-Aug-11 09:12 340 2 gusting 6 10.9
2020-Aug-11 09:02 330 2 gusting 6 10.9
2020-Aug-11 08:52 310 5 gusting 6 10.9
2020-Aug-11 08:42 330 2 gusting 5 11.0
2020-Aug-11 08:33 350 1 gusting 4 11.1
2020-Aug-11 08:22 350 1 gusting 4 11.2
2020-Aug-11 08:12 350 2 gusting 6 11.4
2020-Aug-11 08:02 310 6 gusting 8 11.7
2020-Aug-11 07:52 310 6 gusting 7 12.1
2020-Aug-11 07:42 340 2 gusting 6 12.5
2020-Aug-11 07:32 350 2 gusting 5 12.5
2020-Aug-11 07:22 320 2 gusting 5 12.5
2020-Aug-11 07:12 340 1 gusting 2 12.7
2020-Aug-11 07:02 350 1 gusting 2 12.5
2020-Aug-11 06:52 340 2 gusting 4 12.5
2020-Aug-11 06:42 350 1 gusting 4 12.5
2020-Aug-11 06:32 330 2 gusting 4 12.5
2020-Aug-11 06:22 310 2 gusting 4 12.5
2020-Aug-11 06:12 310 1 gusting 2 12.7
2020-Aug-11 06:02 340 1 gusting 4 13.0
2020-Aug-11 05:52 360 2 gusting 4 13.0
2020-Aug-11 05:42 360 2 gusting 2 12.8
2020-Aug-11 05:32 350 1 gusting 2 12.8
2020-Aug-11 05:22 350 2 gusting 4 12.6
2020-Aug-11 05:12 360 2 gusting 5 12.6
2020-Aug-11 05:02 360 2 gusting 5 12.5
2020-Aug-11 04:52 010 2 gusting 5 12.5
2020-Aug-11 04:42 010 2 gusting 5 12.3
2020-Aug-11 04:32 030 4 gusting 6 12.1
2020-Aug-11 04:22 030 4 gusting 6 12.1
2020-Aug-11 04:12 030 5 gusting 7 12.0
2020-Aug-11 04:02 030 4 gusting 6 11.9
2020-Aug-11 03:52 030 4 gusting 7 11.8
2020-Aug-11 03:42 040 4 gusting 6 11.7
2020-Aug-11 03:32 050 4 gusting 6 11.8
2020-Aug-11 03:22 080 5 gusting 9 11.9
2020-Aug-11 03:13 090 6 gusting 13 12.1
2020-Aug-11 03:03 050 5 gusting 7 12.5
2020-Aug-11 02:52 060 4 gusting 7 12.6
2020-Aug-11 02:42 090 4 gusting 8 13.0
2020-Aug-11 02:32 080 5 gusting 7 13.1
2020-Aug-11 02:22 090 6 gusting 9 13.2
2020-Aug-11 02:12 070 5 gusting 12 13.3
2020-Aug-11 02:02 080 5 gusting 11 13.2
2020-Aug-11 01:52 090 5 gusting 11 13.2
2020-Aug-11 01:42 100 6 gusting 13 13.1
2020-Aug-11 01:32 090 8 gusting 13 13.0
2020-Aug-11 01:22 100 8 gusting 13 13.1
2020-Aug-11 01:12 100 11 gusting 17 13.2
2020-Aug-11 01:02 110 9 gusting 15 13.3
2020-Aug-11 00:52 110 7 gusting 13 13.3
2020-Aug-11 00:42 110 8 gusting 18 13.2
2020-Aug-11 00:32 110 11 gusting 18 13.2
2020-Aug-11 00:22 100 8 gusting 17 13.3
2020-Aug-11 00:12 100 9 gusting 17 13.2
2020-Aug-10 23:52 090 6 gusting 12 13.3
2020-Aug-10 23:43 100 9 gusting 17 13.0
2020-Aug-10 23:32 100 9 gusting 18 12.8
2020-Aug-10 23:22 110 8 gusting 14 13.0
2020-Aug-10 23:12 110 11 gusting 15 13.1
2020-Aug-10 23:02 110 11 gusting 18 13.4
2020-Aug-10 22:53 100 9 gusting 18 13.6
2020-Aug-10 22:42 090 9 gusting 15 13.6
2020-Aug-10 22:33 100 9 gusting 18 13.2
2020-Aug-10 22:22 100 9 gusting 19 13.0
2020-Aug-10 22:12 100 9 gusting 18 13.0
2020-Aug-10 22:02 090 9 gusting 19 13.4
2020-Aug-10 21:52 090 6 gusting 13 13.5
2020-Aug-10 21:42 100 7 gusting 13 13.3
2020-Aug-10 21:32 100 8 gusting 13 13.2
2020-Aug-10 21:22 100 9 gusting 18 13.3
2020-Aug-10 21:13 110 8 gusting 17 13.2
2020-Aug-10 21:03 110 12 gusting 20 12.8
2020-Aug-10 20:52 100 9 gusting 17 12.7
2020-Aug-10 20:42 120 12 gusting 17 12.7
2020-Aug-10 20:33 120 11 gusting 18 12.9
2020-Aug-10 20:23 120 9 gusting 15 13.0
2020-Aug-10 20:12 110 9 gusting 14 13.1
2020-Aug-10 20:02 110 12 gusting 17 13.1
2020-Aug-10 19:52 120 8 gusting 14 13.2
2020-Aug-10 19:43 110 12 gusting 17 13.2
2020-Aug-10 19:32 100 7 gusting 13 13.3
2020-Aug-10 19:22 110 7 gusting 14 13.5
2020-Aug-10 19:12 110 6 gusting 12 13.7
2020-Aug-10 19:02 110 6 gusting 13 13.7
2020-Aug-10 18:52 110 7 gusting 12 13.6
2020-Aug-10 18:42 110 6 gusting 13 13.6
2020-Aug-10 18:32 110 6 gusting 13 13.5
2020-Aug-10 18:22 110 7 gusting 13 13.5
2020-Aug-10 18:12 130 7 gusting 15 13.6
2020-Aug-10 18:02 150 7 gusting 13 13.6
2020-Aug-10 17:52 150 6 gusting 13 13.6
2020-Aug-10 17:42 130 6 gusting 14 13.6
2020-Aug-10 17:32 120 7 gusting 12 13.8
2020-Aug-10 17:22 100 6 gusting 17 14.0
2020-Aug-10 17:12 090 6 gusting 11 14.0
2020-Aug-10 17:02 100 6 gusting 11 13.9
2020-Aug-10 16:53 090 6 gusting 11 13.7
2020-Aug-10 16:42 100 6 gusting 13 13.6
2020-Aug-10 16:33 080 6 gusting 9 13.7
2020-Aug-10 16:22 060 5 gusting 11 13.5
2020-Aug-10 16:12 070 5 gusting 11 13.5
2020-Aug-10 16:02 070 4 gusting 7 13.4
2020-Aug-10 15:52 040 2 gusting 5 13.4
2020-Aug-10 15:42 060 4 gusting 7 13.2
2020-Aug-10 15:32 050 4 gusting 7 12.8
2020-Aug-10 15:23 050 4 gusting 11 12.6
2020-Aug-10 15:12 040 4 gusting 7 12.4
2020-Aug-10 15:02 050 6 gusting 11 12.3
2020-Aug-10 14:52 050 6 gusting 9 12.2
2020-Aug-10 14:44 050 6 gusting 11 12.2
2020-Aug-10 14:43 050 6 gusting 11 12.2
2020-Aug-10 14:24 050 5 gusting 8 12.3
2020-Aug-10 13:32 030 2 gusting 5 12.1
2020-Aug-10 13:22 040 4 gusting 6 12.2
2020-Aug-10 13:12 020 2 gusting 6 12.5
2020-Aug-10 13:02 350 1 gusting 2 12.5
2020-Aug-10 12:52 350 1 gusting 4 12.5
2020-Aug-10 12:42 340 1 gusting 5 12.6
2020-Aug-10 12:32 010 2 gusting 7 12.6
2020-Aug-10 12:22 030 4 gusting 6 12.7
2020-Aug-10 12:12 020 2 gusting 8 12.8
2020-Aug-10 12:02 350 1 gusting 4 12.9
2020-Aug-10 11:52 330 2 gusting 6 12.8
2020-Aug-10 11:42 340 2 gusting 6 12.7
2020-Aug-10 11:32 340 2 gusting 6 12.6
2020-Aug-10 11:22 340 1 gusting 4 12.4
2020-Aug-10 11:12 340 1 gusting 4 12.2
2020-Aug-10 11:02 010 2 gusting 5 12.0
2020-Aug-10 10:52 040 4 gusting 6 12.2
2020-Aug-10 10:42 040 4 gusting 7 12.4
2020-Aug-10 10:32 020 5 gusting 8 12.3
2020-Aug-10 10:23 030 4 gusting 6 12.2
2020-Aug-10 10:13 040 4 gusting 6 12.4
2020-Aug-10 10:02 060 4 gusting 6 12.5
2020-Aug-10 09:52 050 4 gusting 6 12.6
2020-Aug-10 09:42 050 4 gusting 6 12.6
2020-Aug-10 09:32 050 4 gusting 6 12.7
2020-Aug-10 09:22 050 4 gusting 6 12.8
2020-Aug-10 09:12 060 4 gusting 12 12.7
2020-Aug-10 09:02 070 6 gusting 11 12.7
2020-Aug-10 08:52 070 5 gusting 11 12.8
2020-Aug-10 08:42 060 6 gusting 13 12.7
2020-Aug-10 08:32 050 6 gusting 13 12.6
2020-Aug-10 08:22 060 6 gusting 9 12.5
2020-Aug-10 08:12 060 7 gusting 13 12.4
2020-Aug-10 08:02 060 6 gusting 11 12.5
2020-Aug-10 07:52 060 5 gusting 9 12.5
2020-Aug-10 07:42 050 4 gusting 9 12.6
2020-Aug-10 07:32 060 5 gusting 8 12.5
2020-Aug-10 07:22 070 5 gusting 12 12.6
2020-Aug-10 07:12 070 6 gusting 11 12.8
2020-Aug-10 07:02 090 6 gusting 9 12.9